createdAt,value
2022-08-05T00:00:59.146Z,58.02
2022-08-05T00:01:59.138Z,57.89
2022-08-05T00:02:59.131Z,57.5
2022-08-05T00:03:59.110Z,57.5
2022-08-05T00:04:59.116Z,57.1
2022-08-05T00:05:59.091Z,58.12
2022-08-05T00:06:59.093Z,58.45
2022-08-05T00:07:59.071Z,60.11
2022-08-05T00:08:59.062Z,61.23
2022-08-05T00:09:59.064Z,62.26
2022-08-05T00:10:59.041Z,62.45
2022-08-05T00:11:59.034Z,60.97
2022-08-05T00:12:59.018Z,60.78
2022-08-05T00:13:59.010Z,60.16
2022-08-05T00:14:58.999Z,60.81
2022-08-05T00:15:59.003Z,59.5
2022-08-05T00:16:58.978Z,57.67
2022-08-05T00:17:58.966Z,57.02
2022-08-05T00:18:58.956Z,56.53
2022-08-05T00:19:58.946Z,56.1
2022-08-05T00:20:58.931Z,55.71
2022-08-05T00:21:58.921Z,55.49
2022-08-05T00:22:58.919Z,55.07
2022-08-05T00:23:58.904Z,54.87
2022-08-05T00:24:58.939Z,55.49
2022-08-05T00:25:58.879Z,54.64
2022-08-05T00:26:58.866Z,54.35
2022-08-05T00:27:58.921Z,54.35
2022-08-05T00:28:58.850Z,54.16
2022-08-05T00:29:58.839Z,54.25
2022-08-05T00:30:58.844Z,54.68
2022-08-05T00:31:58.817Z,54.97
2022-08-05T00:32:58.800Z,55.16
2022-08-05T00:33:58.793Z,55.07
2022-08-05T00:34:58.796Z,54.87
2022-08-05T00:35:58.781Z,56.63
2022-08-05T00:36:58.762Z,57.12
2022-08-05T00:37:58.751Z,56.6
2022-08-05T00:38:58.741Z,56.18
2022-08-05T00:39:58.733Z,55.76
2022-08-05T00:40:58.720Z,55.76
2022-08-05T00:41:58.722Z,55.43
2022-08-05T00:42:58.696Z,54.91
2022-08-05T00:43:58.686Z,54.33
2022-08-05T00:44:58.677Z,54.3
2022-08-05T00:45:58.670Z,56.27
2022-08-05T00:46:58.661Z,57.93
2022-08-05T00:47:58.653Z,59.6
2022-08-05T00:48:58.637Z,60.62
2022-08-05T00:49:58.623Z,61.44
2022-08-05T00:50:58.617Z,62.99
2022-08-05T00:51:58.606Z,63.81
2022-08-05T00:52:58.589Z,64.01
2022-08-05T00:53:58.579Z,63.91
2022-08-05T00:54:58.576Z,64.73
2022-08-05T00:55:58.563Z,65.03
2022-08-05T00:56:58.545Z,64.9
2022-08-05T00:57:58.540Z,65
2022-08-05T00:58:58.532Z,64.8
2022-08-05T00:59:58.517Z,64.6
2022-08-05T01:00:58.501Z,64.8
2022-08-05T01:01:58.510Z,64.24
2022-08-05T01:02:58.486Z,62.17
2022-08-05T01:03:58.478Z,60.24
2022-08-05T01:04:58.464Z,59.39
2022-08-05T01:05:58.452Z,58.05
2022-08-05T01:06:58.442Z,57.75
2022-08-05T01:07:58.432Z,58.89
2022-08-05T01:08:58.426Z,60.04
2022-08-05T01:09:58.408Z,62.07
2022-08-05T01:10:58.426Z,65.66
2022-08-05T01:11:58.387Z,67.38
2022-08-05T01:12:58.378Z,68.7
2022-08-05T01:13:58.370Z,69.09
2022-08-05T01:14:58.369Z,69.69
2022-08-05T01:15:58.350Z,69.49
2022-08-05T01:16:58.338Z,70.12
2022-08-05T01:17:58.323Z,70.15
2022-08-05T01:18:58.310Z,71.14
2022-08-05T01:19:58.302Z,71.37
2022-08-05T01:20:58.346Z,70.92
2022-08-05T01:21:58.284Z,70.48
2022-08-05T01:22:58.277Z,70.18
2022-08-05T01:23:58.267Z,71.18
2022-08-05T01:24:58.246Z,70.78
2022-08-05T01:25:58.236Z,70.65
2022-08-05T01:26:58.228Z,72.27
2022-08-05T01:27:58.220Z,71.58
2022-08-05T01:28:58.209Z,71.18
2022-08-05T01:29:58.206Z,69.2
2022-08-05T01:30:58.190Z,68.73
2022-08-05T01:31:58.172Z,70.29
2022-08-05T01:32:58.163Z,71.22
2022-08-05T01:33:58.154Z,71.01
2022-08-05T01:34:58.173Z,71.11
2022-08-05T01:35:58.129Z,70.32
2022-08-05T01:36:58.125Z,69.69
2022-08-05T01:37:58.111Z,70.29
2022-08-05T01:38:58.103Z,67.74
2022-08-05T01:39:58.090Z,64.47
2022-08-05T01:40:58.086Z,63.52
2022-08-05T01:41:58.073Z,62.6
2022-08-05T01:42:58.053Z,61.18
2022-08-05T01:43:58.056Z,60.76
2022-08-05T01:44:58.082Z,60.17
2022-08-05T01:45:58.031Z,59.55
2022-08-05T01:46:58.019Z,59.64
2022-08-05T01:47:58.055Z,59.22
2022-08-05T01:48:57.995Z,58.63
2022-08-05T01:49:57.993Z,58.95
2022-08-05T01:50:57.969Z,59.02
2022-08-05T01:51:57.959Z,58.6
2022-08-05T01:52:57.957Z,58.3
2022-08-05T01:53:57.941Z,57.78
2022-08-05T01:54:58.645Z,57.19
2022-08-05T01:55:57.920Z,58.01
2022-08-05T01:56:57.905Z,58.73
2022-08-05T01:57:57.893Z,58.63
2022-08-05T01:58:57.895Z,58.86
2022-08-05T01:59:57.879Z,60.52
2022-08-05T02:00:57.860Z,63.71
2022-08-05T02:01:57.849Z,64.63
2022-08-05T02:02:57.846Z,66.18
2022-08-05T02:03:57.829Z,67.21
2022-08-05T02:04:57.988Z,67.97
2022-08-05T02:05:57.809Z,67.8
2022-08-05T02:06:57.799Z,66.78
2022-08-05T02:07:57.805Z,65.89
2022-08-05T02:08:57.773Z,67.97
2022-08-05T02:09:57.758Z,69.32
2022-08-05T02:10:57.770Z,70.65
2022-08-05T02:11:57.742Z,70.03
2022-08-05T02:12:57.734Z,69.53
2022-08-05T02:13:57.721Z,68.6
2022-08-05T02:14:57.707Z,68.2
2022-08-05T02:15:57.700Z,68
2022-08-05T02:16:57.688Z,67.97
2022-08-05T02:17:57.677Z,67.27
2022-08-05T02:18:57.678Z,67.07
2022-08-05T02:19:57.654Z,66.97
2022-08-05T02:20:57.650Z,67.47
2022-08-05T02:21:57.627Z,67.24
2022-08-05T02:22:57.630Z,66.85
2022-08-05T02:23:57.612Z,66.74
2022-08-05T02:24:57.600Z,66.74
2022-08-05T02:25:57.594Z,66.15
2022-08-05T02:26:57.574Z,66.02
2022-08-05T02:27:57.639Z,63.28
2022-08-05T02:28:57.548Z,63.18
2022-08-05T02:29:57.538Z,61.83
2022-08-05T02:30:57.530Z,60
2022-08-05T02:31:57.535Z,59.08
2022-08-05T02:32:57.507Z,58.75
2022-08-05T02:33:57.500Z,58.36
2022-08-05T02:34:57.489Z,59.67
2022-08-05T02:35:57.477Z,58.36
2022-08-05T02:36:57.459Z,58.36
2022-08-05T02:37:57.722Z,59.2
2022-08-05T02:38:57.439Z,60.13
2022-08-05T02:39:57.436Z,61.18
2022-08-05T02:40:57.419Z,61.4
2022-08-05T02:41:57.406Z,62.42
2022-08-05T02:42:57.396Z,62.62
2022-08-05T02:43:57.388Z,61.5
2022-08-05T02:44:57.384Z,61.6
2022-08-05T02:45:57.364Z,60.75
2022-08-05T02:46:57.349Z,62.65
2022-08-05T02:47:57.343Z,64.4
2022-08-05T02:48:57.330Z,65.32
2022-08-05T02:49:57.327Z,65.32
2022-08-05T02:50:57.306Z,65.32
2022-08-05T02:51:57.296Z,65.42
2022-08-05T02:52:57.289Z,65.65
2022-08-05T02:53:57.284Z,65.55
2022-08-05T02:54:57.262Z,66.25
2022-08-05T02:55:57.257Z,65.85
2022-08-05T02:56:57.238Z,65.59
2022-08-05T02:57:57.226Z,62.66
2022-08-05T02:58:57.241Z,60.49
2022-08-05T02:59:57.207Z,59.08
2022-08-05T03:00:57.199Z,59.08
2022-08-05T03:01:57.197Z,58.36
2022-08-05T03:02:57.176Z,58.14
2022-08-05T03:03:57.166Z,57.74
2022-08-05T03:04:57.156Z,60.25
2022-08-05T03:05:57.140Z,62.19
2022-08-05T03:06:57.128Z,64.56
2022-08-05T03:07:57.119Z,65.92
2022-08-05T03:08:57.113Z,65.89
2022-08-05T03:09:57.105Z,65.59
2022-08-05T03:10:57.085Z,65.59
2022-08-05T03:11:57.081Z,65.89
2022-08-05T03:13:57.052Z,66.51
2022-08-05T03:14:57.048Z,66.91
2022-08-05T03:15:57.032Z,67.04
2022-08-05T03:16:57.026Z,67.14
2022-08-05T03:17:57.005Z,67.24
2022-08-05T03:18:57.003Z,67.67
2022-08-05T03:19:56.994Z,67.97
2022-08-05T03:20:56.982Z,67.97
2022-08-05T03:21:56.972Z,68.16
2022-08-05T03:22:56.954Z,68.37
2022-08-05T03:23:56.945Z,68.07
2022-08-05T03:24:56.993Z,68.99
2022-08-05T03:25:56.920Z,68.57
2022-08-05T03:26:56.916Z,68.57
2022-08-05T03:27:56.924Z,68.57
2022-08-05T03:28:56.887Z,68.66
2022-08-05T03:29:56.878Z,68.04
2022-08-05T03:30:56.870Z,67.64
2022-08-05T03:31:56.857Z,67.6
2022-08-05T03:32:56.845Z,67.31
2022-08-05T03:33:56.829Z,66.91
2022-08-05T03:34:56.984Z,67.01
2022-08-05T03:35:56.806Z,66.71
2022-08-05T03:36:56.803Z,66.61
2022-08-05T03:37:56.796Z,66.61
2022-08-05T03:38:56.781Z,66.71
2022-08-05T03:39:56.766Z,67.24
2022-08-05T03:40:56.756Z,67.01
2022-08-05T03:41:56.745Z,66.91
2022-08-05T03:42:56.738Z,66.81
2022-08-05T03:43:56.727Z,66.68
2022-08-05T03:44:56.723Z,63.25
2022-08-05T03:45:56.701Z,60.99
2022-08-05T03:46:56.701Z,59.45
2022-08-05T03:47:56.685Z,59.02
2022-08-05T03:48:56.663Z,58.2
2022-08-05T03:49:56.659Z,57.59
2022-08-05T03:50:56.647Z,57.71
2022-08-05T03:51:56.634Z,57.71
2022-08-05T03:52:56.636Z,58.43
2022-08-05T03:53:56.621Z,58.86
2022-08-05T03:54:56.598Z,61.27
2022-08-05T03:55:56.594Z,62.92
2022-08-05T03:56:56.596Z,64.47
2022-08-05T03:57:56.590Z,66.15
2022-08-05T03:58:56.565Z,68.1
2022-08-05T03:59:56.562Z,68.99
2022-08-05T04:00:56.539Z,69.29
2022-08-05T04:01:56.540Z,69.73
2022-08-05T04:02:56.511Z,69.99
2022-08-05T04:03:56.504Z,67.94
2022-08-05T04:04:56.509Z,68.37
2022-08-05T04:05:56.481Z,68.16
2022-08-05T04:06:56.479Z,68.76
2022-08-05T04:07:56.461Z,69.2
2022-08-05T04:08:56.447Z,69.29
2022-08-05T04:09:56.439Z,67.31
2022-08-05T04:10:56.431Z,65.53
2022-08-05T04:11:56.415Z,65.2
2022-08-05T04:12:56.407Z,63.58
2022-08-05T04:13:56.393Z,63.58
2022-08-05T04:14:56.388Z,64.34
2022-08-05T04:15:56.377Z,67.57
2022-08-05T04:16:56.374Z,69.73
2022-08-05T04:17:56.356Z,71.28
2022-08-05T04:18:56.353Z,72.41
2022-08-05T04:19:56.324Z,73.25
2022-08-05T04:20:56.320Z,73.71
2022-08-05T04:21:56.311Z,73.61
2022-08-05T04:22:56.294Z,73.08
2022-08-05T04:23:56.283Z,72.64
2022-08-05T04:24:56.272Z,72.14
2022-08-05T04:25:56.265Z,70.75
2022-08-05T04:26:56.264Z,70.59
2022-08-05T04:27:56.249Z,71.08
2022-08-05T04:28:56.229Z,70.78
2022-08-05T04:29:56.221Z,70.59
2022-08-05T04:30:56.207Z,70.98
2022-08-05T04:31:56.197Z,71.08
2022-08-05T04:32:56.185Z,70.89
2022-08-05T04:33:56.195Z,71.72
2022-08-05T04:34:56.164Z,71.38
2022-08-05T04:35:56.159Z,69.06
2022-08-05T04:36:56.154Z,66.16
2022-08-05T04:37:56.131Z,64.11
2022-08-05T04:38:56.123Z,62.27
2022-08-05T04:39:56.112Z,61.35
2022-08-05T04:40:56.104Z,62.1
2022-08-05T04:41:56.097Z,64.9
2022-08-05T04:42:56.079Z,66.05
2022-08-05T04:43:56.069Z,66.78
2022-08-05T04:44:56.063Z,67.31
2022-08-05T04:45:56.061Z,68.16
2022-08-05T04:46:56.034Z,69.49
2022-08-05T04:47:56.027Z,70.32
2022-08-05T04:48:56.017Z,71.05
2022-08-05T04:49:56.011Z,72.38
2022-08-05T04:50:56.006Z,72.48
2022-08-05T04:51:55.983Z,72.61
2022-08-05T04:52:55.982Z,73.11
2022-08-05T04:53:55.965Z,73.74
2022-08-05T04:54:55.954Z,74.11
2022-08-05T04:55:55.942Z,73.57
2022-08-05T04:56:55.954Z,72.78
2022-08-05T04:57:55.926Z,72.58
2022-08-05T04:58:55.917Z,68.86
2022-08-05T04:59:55.910Z,66.09
2022-08-05T05:00:55.892Z,64.44
2022-08-05T05:01:55.915Z,65.62
2022-08-05T05:02:55.873Z,66.75
2022-08-05T05:03:55.868Z,64.74
2022-08-05T05:04:55.856Z,62.7
2022-08-05T05:05:55.842Z,61.35
2022-08-05T05:06:55.829Z,61.55
2022-08-05T05:07:55.818Z,62.85
2022-08-05T05:08:55.814Z,65.99
2022-08-05T05:09:55.802Z,68.27
2022-08-05T05:10:55.802Z,70.92
2022-08-05T05:11:55.782Z,72.68
2022-08-05T05:12:55.766Z,74.74
2022-08-05T05:13:55.754Z,76.47
2022-08-05T05:14:55.754Z,77.61
2022-08-05T05:15:55.738Z,78.11
2022-08-05T05:16:55.737Z,78.17
2022-08-05T05:17:55.716Z,79.7
2022-08-05T05:18:55.705Z,81.36
2022-08-05T05:19:55.697Z,81.46
2022-08-05T05:20:55.684Z,81.96
2022-08-05T05:21:55.675Z,81.66
2022-08-05T05:22:55.680Z,81.26
2022-08-05T05:23:55.658Z,81.32
2022-08-05T05:24:55.647Z,80.68
2022-08-05T05:25:55.646Z,80.38
2022-08-05T05:26:55.624Z,80.18
2022-08-05T05:27:55.612Z,76.72
2022-08-05T05:28:55.597Z,74.22
2022-08-05T05:29:55.595Z,72.36
2022-08-05T05:30:55.580Z,69.62
2022-08-05T05:31:55.571Z,69.29
2022-08-05T05:32:55.565Z,68.76
2022-08-05T05:33:55.553Z,67.61
2022-08-05T05:34:55.538Z,67.54
2022-08-05T05:35:55.534Z,68.63
2022-08-05T05:36:55.520Z,70.55
2022-08-05T05:37:55.502Z,70.18
2022-08-05T05:38:55.501Z,69.16
2022-08-05T05:39:55.483Z,68.2
2022-08-05T05:40:55.474Z,68.9
2022-08-05T05:41:55.470Z,69.29
2022-08-05T05:42:55.458Z,69.36
2022-08-05T05:43:55.462Z,69.39
2022-08-05T05:44:55.430Z,70.38
2022-08-05T05:45:55.425Z,69.85
2022-08-05T05:46:55.423Z,69.16
2022-08-05T05:47:55.400Z,68.13
2022-08-05T05:48:55.393Z,69.23
2022-08-05T05:49:55.376Z,67.91
2022-08-05T05:50:55.625Z,66.69
2022-08-05T05:51:55.377Z,66.36
2022-08-05T05:52:55.376Z,65.34
2022-08-05T05:53:55.335Z,65.14
2022-08-05T05:54:55.336Z,64.61
2022-08-05T05:56:03.066Z,64.42
2022-08-05T05:56:55.314Z,65.44
2022-08-05T05:57:55.290Z,65.27
2022-08-05T05:58:55.284Z,65.56
2022-08-05T05:59:55.279Z,66.82
2022-08-05T06:00:55.261Z,68.46
2022-08-05T06:01:55.249Z,68.57
2022-08-05T06:02:55.243Z,67.54
2022-08-05T06:03:55.236Z,68.17
2022-08-05T06:04:55.219Z,70.02
2022-08-05T06:05:55.208Z,70.62
2022-08-05T06:06:55.197Z,68.96
2022-08-05T06:07:55.190Z,68.27
2022-08-05T06:08:55.181Z,68.66
2022-08-05T06:09:55.166Z,68.27
2022-08-05T06:10:55.156Z,68.04
2022-08-05T06:11:55.144Z,67.8
2022-08-05T06:12:55.131Z,67.35
2022-08-05T06:13:55.124Z,67.21
2022-08-05T06:14:55.124Z,68.01
2022-08-05T06:15:55.126Z,69.23
2022-08-05T06:16:55.105Z,69.39
2022-08-05T06:17:55.091Z,69.65
2022-08-05T06:18:55.071Z,71.91
2022-08-05T06:19:55.062Z,71.78
2022-08-05T06:20:55.050Z,71.71
2022-08-05T06:21:55.044Z,70.85
2022-08-05T06:22:55.034Z,70.91
2022-08-05T06:23:55.026Z,70.45
2022-08-05T06:24:55.005Z,69.76
2022-08-05T06:25:55.002Z,70.98
2022-08-05T06:26:54.981Z,70.68
2022-08-05T06:27:54.976Z,70.78
2022-08-05T06:28:54.964Z,70.15
2022-08-05T06:29:54.959Z,70.28
2022-08-05T06:30:54.942Z,69.26
2022-08-05T06:31:54.947Z,68.2
2022-08-05T06:32:54.918Z,66.98
2022-08-05T06:33:54.908Z,66.82
2022-08-05T06:34:54.902Z,66.88
2022-08-05T06:35:54.915Z,65.92
2022-08-05T06:36:54.883Z,67.68
2022-08-05T06:37:54.874Z,68.73
2022-08-05T06:38:54.897Z,69.85
2022-08-05T06:39:54.847Z,70.29
2022-08-05T06:40:54.835Z,71.61
2022-08-05T06:41:54.829Z,71.71
2022-08-05T06:42:54.820Z,71.71
2022-08-05T06:43:54.810Z,72.64
2022-08-05T06:44:54.793Z,73.17
2022-08-05T06:45:54.783Z,72.44
2022-08-05T06:46:54.785Z,72.24
2022-08-05T06:47:54.761Z,72.27
2022-08-05T06:48:54.753Z,71.21
2022-08-05T06:49:54.740Z,69.49
2022-08-05T06:50:54.731Z,69.46
2022-08-05T06:51:54.734Z,67.97
2022-08-05T06:52:54.723Z,67.9
2022-08-05T06:53:54.699Z,69.16
2022-08-05T06:54:54.685Z,69.89
2022-08-05T06:55:54.674Z,69.79
2022-08-05T06:56:54.668Z,70.32
2022-08-05T06:57:54.654Z,69.26
2022-08-05T06:58:54.653Z,69.29
2022-08-05T06:59:54.637Z,70.35
2022-08-05T07:00:54.631Z,69.06
2022-08-05T07:01:54.617Z,67.24
2022-08-05T07:02:54.613Z,66.95
2022-08-05T07:03:54.600Z,66.85
2022-08-05T07:04:54.585Z,65.92
2022-08-05T07:05:54.575Z,66.85
2022-08-05T07:06:54.576Z,66.13
2022-08-05T07:07:54.576Z,65.37
2022-08-05T07:08:54.632Z,64.67
2022-08-05T07:09:54.542Z,65
2022-08-05T07:10:54.519Z,65.4
2022-08-05T07:11:54.513Z,64.67
2022-08-05T07:12:54.522Z,64.87
2022-08-05T07:13:54.493Z,66.65
2022-08-05T07:14:54.483Z,64.97
2022-08-05T07:15:54.484Z,64.48
2022-08-05T07:16:54.453Z,63.56
2022-08-05T07:17:54.445Z,62.84
2022-08-05T07:18:54.435Z,62.41
2022-08-05T07:20:54.415Z,63
2022-08-05T07:21:54.454Z,62.71
2022-08-05T07:22:54.405Z,62.01
2022-08-05T07:23:54.382Z,62.57
2022-08-05T07:24:54.381Z,63.09
2022-08-05T07:25:54.359Z,63.62
2022-08-05T07:26:54.353Z,64.11
2022-08-05T07:27:54.334Z,64.21
2022-08-05T07:28:54.327Z,63.92
2022-08-05T07:29:54.321Z,64.34
2022-08-05T07:30:54.345Z,64.34
2022-08-05T07:31:54.293Z,64.24
2022-08-05T07:32:54.283Z,63.85
2022-08-05T07:33:54.268Z,66.78
2022-08-05T07:34:54.265Z,66.42
2022-08-05T07:35:54.252Z,66.19
2022-08-05T07:36:54.254Z,65.2
2022-08-05T07:37:54.230Z,64.77
2022-08-05T07:38:54.216Z,64.44
2022-08-05T07:39:54.214Z,64.04
2022-08-05T07:40:54.204Z,64.14
2022-08-05T07:41:54.209Z,63.71
2022-08-05T07:42:54.176Z,65.06
2022-08-05T07:43:54.212Z,65.53
2022-08-05T07:44:54.160Z,66.71
2022-08-05T07:45:54.136Z,68.07
2022-08-05T07:46:54.140Z,70.09
2022-08-05T07:47:54.210Z,68.17
2022-08-05T07:48:54.110Z,65.49
2022-08-05T07:49:54.096Z,64.97
2022-08-05T07:50:54.100Z,64.01
2022-08-05T07:51:54.076Z,63.52
2022-08-05T07:52:54.067Z,62.77
2022-08-05T07:53:54.051Z,62.66
2022-08-05T07:54:54.041Z,62.77
2022-08-05T07:55:54.033Z,62.47
2022-08-05T07:56:54.024Z,62.3
2022-08-05T07:57:54.018Z,62.4
2022-08-05T07:58:53.998Z,62.3
2022-08-05T07:59:54.027Z,62.23
2022-08-05T08:00:53.978Z,62.3
2022-08-05T08:01:53.995Z,62.53
2022-08-05T08:02:53.957Z,62.82
2022-08-05T08:03:53.950Z,62.9
2022-08-05T08:04:53.949Z,62.93
2022-08-05T08:05:53.925Z,61.71
2022-08-05T08:06:53.913Z,61.31
2022-08-05T08:07:53.905Z,62.16
2022-08-05T08:08:53.889Z,62.23
2022-08-05T08:09:53.905Z,61.91
2022-08-05T08:10:53.873Z,61.21
2022-08-05T08:11:53.865Z,60.82
2022-08-05T08:12:53.874Z,61.24
2022-08-05T08:13:53.834Z,63.02
2022-08-05T08:14:53.826Z,62.76
2022-08-05T08:15:53.813Z,61.74
2022-08-05T08:16:53.809Z,61.64
2022-08-05T08:17:53.791Z,61.96
2022-08-05T08:18:53.785Z,62.49
2022-08-05T08:19:53.776Z,63.31
2022-08-05T08:20:53.761Z,63.78
2022-08-05T08:21:53.745Z,62.59
2022-08-05T08:22:53.732Z,63.21
2022-08-05T08:23:53.725Z,62.49
2022-08-05T08:24:53.725Z,62.88
2022-08-05T08:25:53.704Z,62.16
2022-08-05T08:26:53.697Z,61.94
2022-08-05T08:27:53.682Z,61.83
2022-08-05T08:28:53.674Z,61.08
2022-08-05T08:29:53.663Z,61.02
2022-08-05T08:30:53.647Z,61.31
2022-08-05T08:31:53.687Z,61.34
2022-08-05T08:32:53.638Z,62.79
2022-08-05T08:33:53.614Z,62.59
2022-08-05T08:34:53.625Z,62.07
2022-08-05T08:35:53.591Z,61.87
2022-08-05T08:36:53.581Z,61.74
2022-08-05T08:37:53.626Z,62.26
2022-08-05T08:38:53.563Z,62.23
2022-08-05T08:39:53.559Z,61.24
2022-08-05T08:40:53.548Z,61.64
2022-08-05T08:41:53.528Z,61.02
2022-08-05T08:42:53.544Z,61.11
2022-08-05T08:43:53.513Z,61.15
2022-08-05T08:44:53.506Z,61.87
2022-08-05T08:45:53.485Z,62.79
2022-08-05T08:46:53.492Z,63.54
2022-08-05T08:47:53.461Z,63.74
2022-08-05T08:48:53.461Z,64.67
2022-08-05T08:49:53.465Z,64.7
2022-08-05T08:50:53.434Z,64.89
2022-08-05T08:51:53.419Z,64.56
2022-08-05T08:52:53.414Z,64.23
2022-08-05T08:53:53.397Z,63.09
2022-08-05T08:54:53.390Z,62.19
2022-08-05T08:55:53.388Z,61.4
2022-08-05T08:56:53.365Z,62.55
2022-08-05T08:57:53.365Z,65.35
2022-08-05T08:58:53.341Z,66.38
2022-08-05T08:59:53.442Z,67.4
2022-08-05T09:00:53.322Z,66.67
2022-08-05T09:01:53.308Z,64.79
2022-08-05T09:02:53.310Z,63.74
2022-08-05T09:03:53.288Z,62.72
2022-08-05T09:04:53.274Z,63.05
2022-08-05T09:05:53.266Z,62.62
2022-08-05T09:06:53.267Z,61.93
2022-08-05T09:07:53.242Z,62.19
2022-08-05T09:08:53.229Z,61.07
2022-08-05T09:09:53.301Z,60.55
2022-08-05T09:10:53.218Z,61.27
2022-08-05T09:11:53.219Z,60.68
2022-08-05T09:12:53.220Z,60.44
2022-08-05T09:13:53.180Z,62.74
2022-08-05T09:14:53.164Z,64.16
2022-08-05T09:15:53.180Z,64.79
2022-08-05T09:16:53.177Z,65.81
2022-08-05T09:17:53.139Z,65.42
2022-08-05T09:18:53.131Z,65.09
2022-08-05T09:19:53.177Z,64.29
2022-08-05T09:20:53.125Z,64.62
2022-08-05T09:21:53.128Z,65.42
2022-08-05T09:22:53.075Z,65.45
2022-08-05T09:23:53.076Z,66.35
2022-08-05T09:24:53.052Z,65.75
2022-08-05T09:25:53.086Z,65.94
2022-08-05T09:26:53.044Z,66.17
2022-08-05T09:27:53.052Z,68.7
2022-08-05T09:28:53.012Z,70.76
2022-08-05T09:29:53.014Z,72.42
2022-08-05T09:30:53.022Z,73.06
2022-08-05T09:31:53.008Z,73.02
2022-08-05T09:32:53.021Z,73.58
2022-08-05T09:33:52.953Z,73.65
2022-08-05T09:34:52.952Z,72.98
2022-08-05T09:35:52.937Z,72.05
2022-08-05T09:36:52.921Z,71.05
2022-08-05T09:37:52.919Z,71.55
2022-08-05T09:38:52.909Z,70.75
2022-08-05T09:39:52.900Z,70.59
2022-08-05T09:40:52.907Z,71.32
2022-08-05T09:41:52.869Z,71.82
2022-08-05T09:42:52.859Z,0
2022-08-05T09:43:52.849Z,72.62
2022-08-05T09:44:52.838Z,71.86
2022-08-05T09:45:52.837Z,72.19
2022-08-05T09:46:52.832Z,68.7
2022-08-05T09:47:52.844Z,64.92
2022-08-05T09:48:52.809Z,63.54
2022-08-05T09:49:52.788Z,62.1
2022-08-05T09:50:52.777Z,61.27
2022-08-05T09:51:52.781Z,59.86
2022-08-05T09:52:52.775Z,59.46
2022-08-05T09:53:52.753Z,60.55
2022-08-05T09:54:52.737Z,59.06
2022-08-05T09:55:52.724Z,59.62
2022-08-05T09:56:52.711Z,60.41
2022-08-05T09:57:52.714Z,61.04
2022-08-05T09:58:52.691Z,61.07
2022-08-05T09:59:52.708Z,60.51
2022-08-05T10:00:52.672Z,61.47
2022-08-05T10:01:52.656Z,60.92
2022-08-05T10:02:52.646Z,59.8
2022-08-05T10:03:52.637Z,59.28
2022-08-05T10:04:52.628Z,57.79
2022-08-05T10:05:52.621Z,58.61
2022-08-05T10:06:52.616Z,59.2
2022-08-05T10:07:52.592Z,58.81
2022-08-05T10:08:52.590Z,58.74
2022-08-05T10:09:52.577Z,59.44
2022-08-05T10:10:52.561Z,59.2
2022-08-05T10:11:52.552Z,59.08
2022-08-05T10:12:52.540Z,58.09
2022-08-05T10:13:52.544Z,57.3
2022-08-05T10:14:52.523Z,56.81
2022-08-05T10:15:52.524Z,56.88
2022-08-05T10:16:52.505Z,56.41
2022-08-05T10:17:52.495Z,58.05
2022-08-05T10:18:52.481Z,57.65
2022-08-05T10:19:52.465Z,57.98
2022-08-05T10:20:52.460Z,57.95
2022-08-05T10:21:52.448Z,57.16
2022-08-05T10:22:52.437Z,57.56
2022-08-05T10:23:52.433Z,57.43
2022-08-05T10:24:52.416Z,57.1
2022-08-05T10:25:52.404Z,56.48
2022-08-05T10:26:52.393Z,55.99
2022-08-05T10:27:52.384Z,55.92
2022-08-05T10:28:52.377Z,55.62
2022-08-05T10:29:52.369Z,56.02
2022-08-05T10:30:52.357Z,56.24
2022-08-05T10:31:52.348Z,56.63
2022-08-05T10:32:52.348Z,55.82
2022-08-05T10:33:52.317Z,55.1
2022-08-05T10:34:52.342Z,55
2022-08-05T10:35:52.309Z,55.92
2022-08-05T10:36:52.293Z,55.72
2022-08-05T10:37:52.288Z,55.92
2022-08-05T10:38:52.288Z,55.69
2022-08-05T10:39:52.275Z,56.21
2022-08-05T10:40:52.261Z,56.31
2022-08-05T10:41:52.248Z,55.89
2022-08-05T10:42:52.228Z,55.89
2022-08-05T10:43:52.230Z,56.63
2022-08-05T10:44:52.219Z,57.39
2022-08-05T10:45:52.209Z,57.58
2022-08-05T10:46:52.227Z,58.6
2022-08-05T10:47:52.170Z,57.98
2022-08-05T10:48:52.165Z,57.46
2022-08-05T10:49:52.177Z,56.74
2022-08-05T10:50:52.141Z,57.03
2022-08-05T10:51:52.125Z,57.26
2022-08-05T10:52:52.122Z,57.03
2022-08-05T10:53:52.114Z,56.74
2022-08-05T10:54:52.132Z,56.71
2022-08-05T10:55:52.164Z,56.71
2022-08-05T10:56:52.076Z,56.38
2022-08-05T10:57:52.064Z,55.99
2022-08-05T10:58:52.100Z,56.86
2022-08-05T10:59:52.068Z,58.28
2022-08-05T11:00:52.035Z,57.98
2022-08-05T11:01:52.070Z,58.87
2022-08-05T11:02:52.040Z,58.34
2022-08-05T11:03:52.018Z,57.65
2022-08-05T11:04:52.000Z,58.6
2022-08-05T11:05:52.020Z,58.83
2022-08-05T11:06:51.969Z,60.24
2022-08-05T11:07:51.985Z,59.92
2022-08-05T11:08:51.953Z,59.42
2022-08-05T11:09:51.960Z,59.75
2022-08-05T11:10:51.952Z,60.64
2022-08-05T11:11:51.973Z,61.04
2022-08-05T11:12:51.910Z,62.62
2022-08-05T11:13:51.920Z,62.29
2022-08-05T11:14:51.900Z,63.64
2022-08-05T11:15:51.876Z,65.19
2022-08-05T11:16:51.864Z,66.81
2022-08-05T11:17:51.864Z,66.05
2022-08-05T11:18:51.881Z,65.65
2022-08-05T11:19:51.844Z,66.48
2022-08-05T11:20:51.827Z,66.81
2022-08-05T11:21:51.827Z,67.97
2022-08-05T11:22:51.822Z,67.6
2022-08-05T11:23:51.803Z,66.51
2022-08-05T11:24:51.821Z,65.95
2022-08-05T11:25:51.790Z,65.75
2022-08-05T11:26:51.777Z,65.72
2022-08-05T11:27:51.915Z,64.56
2022-08-05T11:28:51.779Z,65.88
2022-08-05T11:29:51.728Z,67.27
2022-08-05T11:30:51.734Z,67.27
2022-08-05T11:31:51.751Z,66.94
2022-08-05T11:32:51.775Z,66.64
2022-08-05T11:33:51.696Z,67.27
2022-08-05T11:34:51.705Z,65.98
2022-08-05T11:35:51.682Z,66.02
2022-08-05T11:36:51.660Z,65.39
2022-08-05T11:37:51.646Z,65.19
2022-08-05T11:38:51.656Z,64.89
2022-08-05T11:39:51.627Z,64.1
2022-08-05T11:40:51.637Z,64.07
2022-08-05T11:41:51.614Z,64
2022-08-05T11:42:51.647Z,64.13
2022-08-05T11:43:51.582Z,65.02
2022-08-05T11:44:51.569Z,64.7
2022-08-05T11:45:51.561Z,64.79
2022-08-05T11:46:51.558Z,63.48
2022-08-05T11:47:51.552Z,62.78
2022-08-05T11:48:51.533Z,62.88
2022-08-05T11:49:51.534Z,62.65
2022-08-05T11:50:51.562Z,63.45
2022-08-05T11:51:51.495Z,62.26
2022-08-05T11:52:51.488Z,61.76
2022-08-05T11:53:51.477Z,62.08
2022-08-05T11:54:51.497Z,63.04
2022-08-05T11:55:51.459Z,64.06
2022-08-05T11:56:51.540Z,64.76
2022-08-05T11:57:51.433Z,63.57
2022-08-05T11:58:51.426Z,63.67
2022-08-05T11:59:51.457Z,63.76
2022-08-05T12:00:51.432Z,62.87
2022-08-05T12:01:51.395Z,63.82
2022-08-05T12:02:51.385Z,63.92
2022-08-05T12:03:51.377Z,64.12
2022-08-05T12:04:51.356Z,63.73
2022-08-05T12:05:51.374Z,63.6
2022-08-05T12:06:51.341Z,63.73
2022-08-05T12:07:51.335Z,63.76
2022-08-05T12:08:51.330Z,62.84
2022-08-05T12:09:51.413Z,61.07
2022-08-05T12:10:51.302Z,60.44
2022-08-05T12:11:51.285Z,59.52
2022-08-05T12:12:51.285Z,59.65
2022-08-05T12:13:51.294Z,60.67
2022-08-05T12:14:51.258Z,61.07
2022-08-05T12:15:51.250Z,60.6
2022-08-05T12:16:51.240Z,60.63
2022-08-05T12:17:51.227Z,59.51
2022-08-05T12:18:51.269Z,61.08
2022-08-05T12:19:51.200Z,62.63
2022-08-05T12:20:51.256Z,62.76
2022-08-05T12:21:51.188Z,63.29
2022-08-05T12:22:51.173Z,61.25
2022-08-05T12:23:51.167Z,58.86
2022-08-05T12:24:51.166Z,57.02
2022-08-05T12:25:51.141Z,56.82
2022-08-05T12:26:51.202Z,57.24
2022-08-05T12:27:51.167Z,58.51
2022-08-05T12:28:51.115Z,60.06
2022-08-05T12:29:51.097Z,61.18
2022-08-05T12:30:51.081Z,62.15
2022-08-05T12:31:51.079Z,60.28
2022-08-05T12:32:51.063Z,60.39
2022-08-05T12:33:51.071Z,60.88
2022-08-05T12:34:51.069Z,59.34
2022-08-05T12:35:51.040Z,58.61
2022-08-05T12:36:51.018Z,58.29
2022-08-05T12:37:51.005Z,57.51
2022-08-05T12:38:51.008Z,57.21
2022-08-05T12:39:50.989Z,56.99
2022-08-05T12:40:50.971Z,56.76
2022-08-05T12:41:51.040Z,56.34
2022-08-05T12:42:50.955Z,56.86
2022-08-05T12:43:50.963Z,56.62
2022-08-05T12:44:50.946Z,56.57
2022-08-05T12:45:50.932Z,58.47
2022-08-05T12:46:50.951Z,59.72
2022-08-05T12:47:50.943Z,61.51
2022-08-05T12:48:50.890Z,60.39
2022-08-05T12:49:51.704Z,57.79
2022-08-05T12:50:50.879Z,56.32
2022-08-05T12:51:50.858Z,55.41
2022-08-05T12:52:50.857Z,53.77
2022-08-05T12:53:50.832Z,51.79
2022-08-05T12:54:50.856Z,51.92
2022-08-05T12:55:50.814Z,53.75
2022-08-05T12:56:50.798Z,54.3
2022-08-05T12:57:50.808Z,55.11